createdAt,value
2023-02-07T00:01:43.087Z,34.75
2023-02-07T00:04:46.623Z,38.15
2023-02-07T00:07:49.960Z,34.55
2023-02-07T00:10:53.981Z,43.20
2023-02-07T00:13:58.901Z,36.30
2023-02-07T00:17:02.272Z,40.00
2023-02-07T00:20:06.394Z,40.50
2023-02-07T00:23:09.997Z,38.20
2023-02-07T00:26:14.634Z,43.27
2023-02-07T00:29:19.660Z,41.60
2023-02-07T00:32:22.948Z,29.23
2023-02-07T00:35:26.368Z,48.53
2023-02-07T00:38:31.048Z,37.42
2023-02-07T00:41:36.602Z,32.38
2023-02-07T00:44:39.777Z,37.42
2023-02-07T00:47:44.406Z,32.60
2023-02-07T00:50:47.932Z,39.85
2023-02-07T00:53:54.445Z,29.55
2023-02-07T00:56:57.666Z,29.00
2023-02-07T01:00:01.211Z,29.37
2023-02-07T01:03:04.610Z,29.40
2023-02-07T01:06:09.982Z,31.02
2023-02-07T01:09:14.350Z,25.27
2023-02-07T01:12:18.247Z,32.30
2023-02-07T01:15:21.625Z,32.22
2023-02-07T01:18:25.427Z,34.77
2023-02-07T01:21:28.689Z,45.38
2023-02-07T01:24:33.073Z,34.22
2023-02-07T01:27:36.874Z,36.53
2023-02-07T01:30:43.773Z,36.42
2023-02-07T01:33:47.061Z,37.25
2023-02-07T01:36:50.425Z,29.70
2023-02-07T01:39:53.782Z,35.20
2023-02-07T01:42:59.396Z,41.03
2023-02-07T01:46:02.499Z,35.85
2023-02-07T01:49:12.570Z,35.83
2023-02-07T01:52:36.912Z,35.30
2023-02-07T01:55:41.600Z,39.03
2023-02-07T01:58:45.647Z,35.53
2023-02-07T02:01:49.554Z,39.80
2023-02-07T02:04:55.246Z,35.90
2023-02-07T02:07:58.863Z,28.42
2023-02-07T02:11:36.531Z,33.97
2023-02-07T02:14:57.117Z,40.12
2023-02-07T02:18:15.631Z,27.00
2023-02-07T02:21:43.200Z,30.53
2023-02-07T02:25:28.404Z,34.58
2023-02-07T02:29:09.717Z,23.60
2023-02-07T02:32:16.675Z,23.80
2023-02-07T02:35:32.420Z,29.17
2023-02-07T02:38:51.275Z,36.70
2023-02-07T02:42:16.201Z,30.12
2023-02-07T02:45:33.429Z,33.10
2023-02-07T02:48:38.617Z,31.30
2023-02-07T02:51:42.477Z,30.00
2023-02-07T02:54:45.960Z,39.33
2023-02-07T02:58:11.169Z,24.35
2023-02-07T03:01:48.011Z,24.55
2023-02-07T03:04:57.499Z,25.00
2023-02-07T03:08:31.849Z,20.88
2023-02-07T03:11:51.448Z,34.70
2023-02-07T03:15:03.276Z,32.97
2023-02-07T03:18:09.986Z,34.88
2023-02-07T03:21:25.882Z,29.33
2023-02-07T03:24:35.182Z,28.52
2023-02-07T03:27:39.531Z,22.70
2023-02-07T03:30:47.167Z,29.58
2023-02-07T03:33:54.942Z,24.15
2023-02-07T03:37:17.363Z,27.70
2023-02-07T03:40:26.620Z,26.58
2023-02-07T03:43:32.480Z,25.92
2023-02-07T03:46:37.747Z,26.02
2023-02-07T03:49:40.897Z,27.52
2023-02-07T03:52:44.318Z,25.58
2023-02-07T03:55:47.802Z,30.23
2023-02-07T03:58:51.240Z,23.77
2023-02-07T04:01:54.939Z,24.83
2023-02-07T04:04:58.386Z,21.85
2023-02-07T04:08:01.585Z,26.50
2023-02-07T04:11:06.457Z,20.25
2023-02-07T04:14:09.694Z,22.67
2023-02-07T04:17:13.211Z,22.75
2023-02-07T04:20:16.741Z,25.90
2023-02-07T04:23:20.791Z,24.12
2023-02-07T04:26:25.890Z,24.33
2023-02-07T04:29:31.237Z,32.13
2023-02-07T04:32:34.428Z,25.05
2023-02-07T04:35:38.999Z,29.12
2023-02-07T04:38:42.356Z,29.20
2023-02-07T04:41:45.720Z,26.33
2023-02-07T04:44:48.868Z,30.98
2023-02-07T04:47:52.513Z,31.30
2023-02-07T04:50:55.831Z,43.65
2023-02-07T04:53:59.471Z,36.20
2023-02-07T04:57:02.609Z,32.10
2023-02-07T05:00:06.448Z,34.57
2023-02-07T05:03:12.664Z,23.00
2023-02-07T05:06:16.434Z,19.23
2023-02-07T05:09:19.584Z,21.67
2023-02-07T05:12:22.986Z,28.85
2023-02-07T05:15:26.245Z,22.60
2023-02-07T05:18:30.940Z,33.30
2023-02-07T05:21:34.156Z,26.77
2023-02-07T05:24:38.818Z,27.73
2023-02-07T05:27:43.068Z,31.10
2023-02-07T05:30:46.974Z,32.87
2023-02-07T05:33:50.310Z,30.27
2023-02-07T05:36:53.647Z,27.87
2023-02-07T05:39:56.965Z,27.77
2023-02-07T05:43:00.421Z,37.85
2023-02-07T05:46:05.030Z,30.10
2023-02-07T05:49:08.486Z,25.80
2023-02-07T05:52:11.601Z,35.78
2023-02-07T05:55:15.456Z,36.28
2023-02-07T05:58:18.813Z,34.85
2023-02-07T06:01:22.330Z,33.03
2023-02-07T06:04:25.968Z,32.90
2023-02-07T06:07:29.929Z,28.40
2023-02-07T06:10:33.301Z,35.50
2023-02-07T06:13:36.983Z,38.13
2023-02-07T06:16:40.691Z,29.37
2023-02-07T06:19:44.210Z,25.37
2023-02-07T06:22:47.654Z,41.25
2023-02-07T06:25:50.764Z,33.05
2023-02-07T06:28:54.173Z,31.45
2023-02-07T06:31:57.435Z,50.67
2023-02-07T06:35:00.916Z,41.30
2023-02-07T06:38:04.008Z,40.90
2023-02-07T06:41:11.175Z,39.47
2023-02-07T06:44:14.481Z,29.67
2023-02-07T06:47:20.791Z,43.75
2023-02-07T06:50:24.064Z,32.35
2023-02-07T06:53:28.516Z,26.40
2023-02-07T06:56:31.659Z,29.12
2023-02-07T06:59:35.367Z,39.70
2023-02-07T07:02:39.890Z,40.77
2023-02-07T07:05:45.608Z,41.30
2023-02-07T07:08:51.027Z,48.28
2023-02-07T07:11:54.659Z,28.33
2023-02-07T07:14:58.507Z,42.13
2023-02-07T07:18:01.969Z,40.50
2023-02-07T07:21:05.651Z,36.58
2023-02-07T07:24:09.566Z,40.15
2023-02-07T07:27:13.477Z,37.25
2023-02-07T07:30:17.545Z,51.63
2023-02-07T07:33:20.841Z,33.77
2023-02-07T07:36:26.190Z,36.05
2023-02-07T07:39:29.613Z,30.30
2023-02-07T07:42:34.310Z,42.60
2023-02-07T07:45:37.844Z,35.80
2023-02-07T07:48:41.398Z,32.80
2023-02-07T07:51:44.679Z,27.15
2023-02-07T07:54:48.327Z,34.85
2023-02-07T07:57:51.652Z,35.72
2023-02-07T08:00:56.652Z,28.58
2023-02-07T08:04:00.120Z,43.60
2023-02-07T08:07:03.762Z,30.77
2023-02-07T08:10:07.384Z,38.03
2023-02-07T08:13:10.815Z,42.80
2023-02-07T08:16:14.516Z,37.17
2023-02-07T08:19:17.776Z,38.60
2023-02-07T08:22:21.758Z,41.75
2023-02-07T08:25:25.654Z,46.78
2023-02-07T08:28:30.222Z,33.58
2023-02-07T08:31:34.118Z,40.38
2023-02-07T08:34:37.839Z,38.87
2023-02-07T08:37:40.953Z,46.08
2023-02-07T08:40:44.458Z,41.22
2023-02-07T08:43:47.846Z,39.13
2023-02-07T08:46:51.259Z,33.35
2023-02-07T08:49:55.498Z,36.80
2023-02-07T08:52:59.233Z,34.40
2023-02-07T08:56:02.656Z,38.47
2023-02-07T08:59:06.250Z,38.80
2023-02-07T09:02:12.298Z,38.40
2023-02-07T09:05:16.329Z,34.13
2023-02-07T09:08:19.493Z,38.17
2023-02-07T09:11:23.199Z,38.97
2023-02-07T09:14:26.617Z,36.00
2023-02-07T09:17:31.058Z,35.10
2023-02-07T09:20:39.444Z,34.67
2023-02-07T09:23:43.350Z,35.13
2023-02-07T09:26:46.667Z,34.58
2023-02-07T09:29:50.098Z,34.70
2023-02-07T09:32:53.729Z,33.08
2023-02-07T09:35:57.209Z,36.77
2023-02-07T09:39:01.224Z,28.17
2023-02-07T09:42:30.910Z,31.70
2023-02-07T09:45:40.177Z,29.93
2023-02-07T09:48:52.515Z,30.55
2023-02-07T09:52:00.816Z,32.50
2023-02-07T09:55:06.011Z,37.28
2023-02-07T09:58:21.475Z,30.80
2023-02-07T10:01:30.094Z,27.00
2023-02-07T10:04:41.132Z,35.65
2023-02-07T10:07:46.758Z,29.97
2023-02-07T10:11:28.896Z,28.55
2023-02-07T10:14:41.469Z,27.00
2023-02-07T10:17:47.711Z,31.00
2023-02-07T10:21:02.078Z,29.35
2023-02-07T10:24:33.585Z,29.08
2023-02-07T10:27:46.091Z,24.00
2023-02-07T10:31:03.754Z,30.12
2023-02-07T10:34:15.918Z,26.17
2023-02-07T10:37:22.741Z,22.50
2023-02-07T10:40:52.930Z,27.70
2023-02-07T10:43:56.529Z,28.95
2023-02-07T10:47:03.965Z,25.80
2023-02-07T10:50:16.088Z,23.60
2023-02-07T10:53:54.669Z,27.67
2023-02-07T10:57:02.667Z,29.17
2023-02-07T11:00:06.530Z,28.62
2023-02-07T11:03:20.748Z,24.95
2023-02-07T11:06:33.704Z,30.35
2023-02-07T11:09:39.152Z,24.05
2023-02-07T11:12:48.742Z,25.43
2023-02-07T11:16:00.201Z,26.23
2023-02-07T11:19:06.105Z,28.40
2023-02-07T11:22:19.261Z,24.50
2023-02-07T11:25:45.921Z,27.55
2023-02-07T11:29:01.468Z,26.08
2023-02-07T11:32:05.823Z,29.98
2023-02-07T11:35:10.345Z,23.67
2023-02-07T11:38:14.936Z,22.85
2023-02-07T11:41:25.654Z,22.48
2023-02-07T11:44:30.928Z,18.02
2023-02-07T11:47:34.918Z,21.17
2023-02-07T11:50:41.336Z,19.27
2023-02-07T11:53:52.918Z,17.20
2023-02-07T11:57:06.480Z,16.13
2023-02-07T12:00:26.735Z,21.87
2023-02-07T12:03:41.134Z,18.23
2023-02-07T12:06:46.608Z,21.47
2023-02-07T12:09:59.536Z,21.02
2023-02-07T12:13:08.222Z,21.60
2023-02-07T12:16:21.948Z,22.00
2023-02-07T12:19:33.313Z,16.43
2023-02-07T12:23:07.778Z,23.92
2023-02-07T12:26:27.041Z,16.23
2023-02-07T12:29:59.242Z,25.77
2023-02-07T12:33:42.104Z,20.42
2023-02-07T12:36:54.471Z,19.70
2023-02-07T12:40:12.781Z,20.73
2023-02-07T12:43:36.094Z,19.57
2023-02-07T12:46:48.032Z,21.20
2023-02-07T12:50:08.351Z,17.77
2023-02-07T12:53:18.929Z,22.02
2023-02-07T12:56:39.819Z,23.67
2023-02-07T12:59:58.324Z,22.05
2023-02-07T13:03:30.217Z,21.48
2023-02-07T13:06:50.799Z,19.23
2023-02-07T13:10:12.586Z,21.08
2023-02-07T13:13:25.230Z,24.52
2023-02-07T13:16:29.960Z,20.60
2023-02-07T13:19:35.974Z,20.17
2023-02-07T13:22:47.593Z,18.98
2023-02-07T13:25:57.573Z,16.92
2023-02-07T13:29:14.062Z,16.77
2023-02-07T13:32:22.732Z,16.37
2023-02-07T13:35:30.846Z,21.48
2023-02-07T13:38:57.065Z,28.40
2023-02-07T13:42:06.732Z,19.00
2023-02-07T13:45:27.776Z,24.35
2023-02-07T13:48:44.239Z,19.50
2023-02-07T13:52:12.004Z,27.37
2023-02-07T13:55:22.695Z,20.45
2023-02-07T13:58:53.502Z,26.20
2023-02-07T14:01:59.691Z,22.83
2023-02-07T14:05:09.915Z,18.67
2023-02-07T14:08:16.611Z,21.33
2023-02-07T14:11:30.111Z,21.53
2023-02-07T14:14:36.976Z,18.35
2023-02-07T14:17:40.155Z,17.85
2023-02-07T14:20:43.334Z,18.62
2023-02-07T14:24:05.068Z,16.65
2023-02-07T14:27:26.624Z,18.87
2023-02-07T14:30:57.344Z,21.95
2023-02-07T14:34:14.997Z,19.60
2023-02-07T14:37:37.136Z,17.73
2023-02-07T14:40:43.206Z,17.92
2023-02-07T14:44:09.115Z,21.60
2023-02-07T14:47:28.007Z,13.88
2023-02-07T14:50:33.673Z,13.52
2023-02-07T14:53:42.677Z,15.18
2023-02-07T14:57:04.749Z,14.77
2023-02-07T15:00:14.846Z,24.85
2023-02-07T15:03:20.822Z,16.48
2023-02-07T15:06:32.155Z,17.17
2023-02-07T15:09:36.033Z,24.30
2023-02-07T15:12:43.844Z,23.42
2023-02-07T15:15:51.437Z,24.33
2023-02-07T15:19:00.546Z,23.02
2023-02-07T15:22:14.363Z,23.87
2023-02-07T15:25:26.697Z,21.58
2023-02-07T15:28:32.549Z,20.00
2023-02-07T15:31:39.113Z,24.30
2023-02-07T15:34:45.403Z,23.52
2023-02-07T15:37:50.062Z,19.30
2023-02-07T15:40:55.535Z,23.75
2023-02-07T15:44:04.865Z,21.92
2023-02-07T15:47:36.903Z,24.33
2023-02-07T15:50:41.606Z,23.27
2023-02-07T15:53:52.234Z,27.98
2023-02-07T15:57:00.336Z,35.42
2023-02-07T16:00:14.571Z,26.55
2023-02-07T16:03:22.799Z,24.20
2023-02-07T16:06:28.562Z,29.85
2023-02-07T16:09:43.562Z,33.67
2023-02-07T16:12:53.169Z,29.27
2023-02-07T16:16:00.124Z,46.83
2023-02-07T16:19:15.701Z,29.70
2023-02-07T16:22:31.653Z,32.15
2023-02-07T16:25:36.566Z,36.08
2023-02-07T16:28:40.722Z,40.78
2023-02-07T16:31:45.185Z,46.45
2023-02-07T16:34:59.325Z,45.40
2023-02-07T16:38:03.172Z,42.67
2023-02-07T16:41:07.163Z,45.47
2023-02-07T16:44:19.666Z,58.13
2023-02-07T16:47:24.258Z,57.10
2023-02-07T16:50:30.383Z,69.63
2023-02-07T16:53:35.148Z,53.72
2023-02-07T16:56:41.346Z,50.72
2023-02-07T16:59:46.216Z,50.53
2023-02-07T17:02:52.305Z,50.10
2023-02-07T17:05:57.406Z,47.78
2023-02-07T17:09:00.850Z,52.97
2023-02-07T17:12:08.675Z,45.80
2023-02-07T17:15:12.359Z,51.65
2023-02-07T17:18:17.250Z,70.25
2023-02-07T17:21:23.992Z,71.63
2023-02-07T17:24:28.974Z,86.55
2023-02-07T17:27:34.946Z,87.28
2023-02-07T17:30:45.342Z,89.05
2023-02-07T17:33:49.509Z,78.37
2023-02-07T17:36:55.063Z,75.75
2023-02-07T17:40:00.752Z,62.92
2023-02-07T17:43:10.325Z,59.10
2023-02-07T17:46:28.853Z,57.15
2023-02-07T17:49:34.925Z,99.20
2023-02-07T17:52:40.973Z,68.73
2023-02-07T17:55:46.641Z,60.88
2023-02-07T17:58:53.844Z,65.37
2023-02-07T18:02:00.031Z,74.47
2023-02-07T18:05:05.696Z,74.78
2023-02-07T18:08:14.348Z,81.18
2023-02-07T18:11:22.213Z,74.70
2023-02-07T18:14:28.079Z,85.20
2023-02-07T18:17:33.202Z,81.05
2023-02-07T18:20:39.224Z,80.20
2023-02-07T18:23:44.567Z,84.67
2023-02-07T18:26:48.604Z,81.65
2023-02-07T18:29:56.277Z,91.87
2023-02-07T18:33:02.921Z,94.65
2023-02-07T18:36:12.266Z,93.25
2023-02-07T18:39:18.230Z,88.87
2023-02-07T18:42:25.845Z,99.07
2023-02-07T18:45:31.139Z,79.17
2023-02-07T18:48:39.325Z,73.30
2023-02-07T18:51:45.210Z,81.37
2023-02-07T18:54:50.625Z,88.27
2023-02-07T18:57:58.813Z,78.75
2023-02-07T19:01:10.101Z,83.68
2023-02-07T19:04:19.131Z,82.75
2023-02-07T19:07:26.816Z,84.85
2023-02-07T19:10:32.479Z,98.43
2023-02-07T19:13:39.429Z,80.12
2023-02-07T19:16:52.780Z,98.90
2023-02-07T19:19:58.356Z,99.95
2023-02-07T19:23:05.041Z,104.60
2023-02-07T19:26:11.434Z,98.07
2023-02-07T19:29:25.729Z,109.65
2023-02-07T19:32:31.327Z,102.30
2023-02-07T19:35:36.866Z,97.88
2023-02-07T19:38:43.139Z,102.03
2023-02-07T19:41:48.805Z,95.93
2023-02-07T19:44:57.404Z,104.87
2023-02-07T19:48:02.262Z,96.97
2023-02-07T19:51:12.555Z,98.28
2023-02-07T19:54:17.980Z,102.97
2023-02-07T19:57:26.320Z,115.70
2023-02-07T20:00:34.761Z,81.25
2023-02-07T20:03:42.764Z,97.53
2023-02-07T20:06:47.959Z,99.13
2023-02-07T20:09:53.384Z,100.40
2023-02-07T20:12:59.326Z,95.70
2023-02-07T20:16:10.857Z,90.12
2023-02-07T20:19:16.805Z,93.93
2023-02-07T20:22:23.974Z,100.30
2023-02-07T20:25:33.557Z,95.20
2023-02-07T20:28:39.073Z,94.77
2023-02-07T20:31:46.791Z,101.62
2023-02-07T20:34:56.308Z,83.22
2023-02-07T20:38:05.937Z,85.03
2023-02-07T20:41:41.361Z,89.07
2023-02-07T20:44:47.489Z,82.35
2023-02-07T20:47:52.222Z,81.95
2023-02-07T20:51:00.920Z,95.23
2023-02-07T20:54:11.015Z,91.53
2023-02-07T20:57:20.530Z,81.55
2023-02-07T21:00:29.039Z,73.33
2023-02-07T21:03:34.164Z,83.20
2023-02-07T21:06:41.843Z,89.32
2023-02-07T21:09:48.289Z,67.12
2023-02-07T21:12:54.093Z,65.05
2023-02-07T21:16:03.604Z,57.33
2023-02-07T21:19:09.172Z,61.67
2023-02-07T21:22:16.682Z,55.77
2023-02-07T21:25:21.128Z,57.25
2023-02-07T21:28:26.041Z,49.28
2023-02-07T21:31:34.909Z,51.53
2023-02-07T21:34:39.660Z,56.67
2023-02-07T21:37:45.250Z,54.92
2023-02-07T21:40:49.606Z,59.47
2023-02-07T21:43:58.302Z,56.75
2023-02-07T21:47:01.852Z,53.00
2023-02-07T21:50:06.288Z,67.68
2023-02-07T21:53:10.796Z,65.10
2023-02-07T21:56:16.663Z,65.40
2023-02-07T21:59:21.663Z,62.45
2023-02-07T22:02:25.241Z,60.60
2023-02-07T22:05:28.944Z,58.75
2023-02-07T22:08:33.160Z,59.42
2023-02-07T22:11:37.830Z,54.03
2023-02-07T22:14:41.262Z,60.35
2023-02-07T22:17:44.818Z,81.35
2023-02-07T22:20:51.616Z,73.15
2023-02-07T22:23:56.012Z,71.33
2023-02-07T22:26:59.576Z,62.00
2023-02-07T22:30:02.994Z,58.85
2023-02-07T22:33:08.545Z,68.70
2023-02-07T22:36:13.820Z,78.65
2023-02-07T22:39:18.230Z,87.78
2023-02-07T22:42:21.832Z,62.30
2023-02-07T22:45:25.034Z,75.72
2023-02-07T22:48:28.483Z,68.47
2023-02-07T22:51:34.817Z,58.65
2023-02-07T22:54:38.411Z,57.37
2023-02-07T22:57:41.655Z,62.05
2023-02-07T23:00:46.348Z,58.28
2023-02-07T23:03:50.910Z,67.60
2023-02-07T23:06:54.735Z,48.87
2023-02-07T23:09:57.917Z,46.00
2023-02-07T23:13:02.103Z,49.53
2023-02-07T23:16:05.544Z,47.80
2023-02-07T23:19:13.919Z,56.30
2023-02-07T23:22:18.264Z,40.92
2023-02-07T23:25:21.945Z,42.43
2023-02-07T23:28:25.259Z,46.55
2023-02-07T23:31:28.849Z,51.08
2023-02-07T23:34:32.804Z,40.47
2023-02-07T23:37:36.407Z,44.13
2023-02-07T23:40:39.977Z,46.20
2023-02-07T23:43:43.750Z,39.70
2023-02-07T23:46:47.019Z,37.10
2023-02-07T23:49:50.329Z,33.20
2023-02-07T23:52:53.477Z,40.08
2023-02-07T23:55:57.625Z,33.73
2023-02-07T23:59:01.007Z,33.08
